createdAt,value
2023-02-24T00:01:39.850Z,1.19
2023-02-24T00:04:09.664Z,1.15
2023-02-24T00:06:39.509Z,1.16
2023-02-24T00:09:25.392Z,1.19
2023-02-24T00:11:59.119Z,1.18
2023-02-24T00:14:28.336Z,1.18
2023-02-24T00:16:55.130Z,1.09
2023-02-24T00:19:25.003Z,1.12
2023-02-24T00:21:52.208Z,1.09
2023-02-24T00:24:18.898Z,1.02
2023-02-24T00:26:45.479Z,1.01
2023-02-24T00:29:13.075Z,0.93
2023-02-24T00:31:40.049Z,0.92
2023-02-24T00:34:06.964Z,0.86
2023-02-24T00:36:34.042Z,0.88
2023-02-24T00:39:06.996Z,0.89
2023-02-24T00:41:33.446Z,0.93
2023-02-24T00:44:06.027Z,0.90
2023-02-24T00:46:44.465Z,0.84
2023-02-24T00:49:15.735Z,0.86
2023-02-24T00:51:43.914Z,0.86
2023-02-24T00:54:11.066Z,0.84
2023-02-24T00:56:37.915Z,0.83
2023-02-24T00:59:04.269Z,0.72
2023-02-24T01:01:32.818Z,0.70
2023-02-24T01:04:01.062Z,0.68
2023-02-24T01:06:28.831Z,0.65
2023-02-24T01:08:56.846Z,0.64
2023-02-24T01:11:26.371Z,0.60
2023-02-24T01:13:52.723Z,0.49
2023-02-24T01:16:19.660Z,0.49
2023-02-24T01:18:46.844Z,0.49
2023-02-24T01:21:14.442Z,0.46
2023-02-24T01:23:42.487Z,0.41
2023-02-24T01:26:10.201Z,0.39
2023-02-24T01:28:36.953Z,0.38
2023-02-24T01:31:05.100Z,0.38
2023-02-24T01:33:33.561Z,0.31
2023-02-24T01:36:18.050Z,0.27
2023-02-24T01:38:45.005Z,0.22
2023-02-24T01:41:14.760Z,0.22
2023-02-24T01:44:05.375Z,0.24
2023-02-24T01:46:43.423Z,0.26
2023-02-24T01:49:19.696Z,0.28
2023-02-24T01:51:54.557Z,0.23
2023-02-24T01:54:24.924Z,0.23
2023-02-24T01:56:52.709Z,0.17
2023-02-24T01:59:20.806Z,0.11
2023-02-24T02:01:47.892Z,0.08
2023-02-24T02:04:29.135Z,0.06
2023-02-24T02:06:55.575Z,0.05
2023-02-24T02:09:22.209Z,0.07
2023-02-24T02:11:50.634Z,0.12
2023-02-24T02:14:19.717Z,0.11
2023-02-24T02:17:15.011Z,0.16
2023-02-24T02:20:09.121Z,0.18
2023-02-24T02:23:19.153Z,0.15
2023-02-24T02:26:07.479Z,0.19
2023-02-24T02:29:11.203Z,0.23
2023-02-24T02:32:14.527Z,0.22
2023-02-24T02:34:49.781Z,0.17
2023-02-24T02:37:33.378Z,0.15
2023-02-24T02:40:16.946Z,0.15
2023-02-24T02:43:04.477Z,0.05
2023-02-24T02:46:10.198Z,0.07
2023-02-24T02:48:46.097Z,0.07
2023-02-24T02:51:21.136Z,0.07
2023-02-24T02:54:02.062Z,0.13
2023-02-24T02:56:35.553Z,0.11
2023-02-24T02:59:04.207Z,0.08
2023-02-24T03:01:37.189Z,0.04
2023-02-24T03:04:06.802Z,0.04
2023-02-24T03:06:47.040Z,0.06
2023-02-24T03:09:39.656Z,0.03
2023-02-24T03:12:10.384Z,0.05
2023-02-24T03:14:40.711Z,0.14
2023-02-24T03:17:11.918Z,0.13
2023-02-24T03:19:39.828Z,0.15
2023-02-24T03:22:13.851Z,0.21
2023-02-24T03:24:45.679Z,0.25
2023-02-24T03:27:23.822Z,0.28
2023-02-24T03:29:58.469Z,0.32
2023-02-24T03:32:29.813Z,0.34
2023-02-24T03:35:11.869Z,0.38
2023-02-24T03:37:38.466Z,0.44
2023-02-24T03:40:12.903Z,0.47
2023-02-24T03:42:43.459Z,0.47
2023-02-24T03:45:10.715Z,0.53
2023-02-24T03:47:37.659Z,0.61
2023-02-24T03:50:24.362Z,0.72
2023-02-24T03:53:12.258Z,0.77
2023-02-24T03:56:01.879Z,0.88
2023-02-24T03:58:46.141Z,0.92
2023-02-24T04:01:22.070Z,0.96
2023-02-24T04:04:37.949Z,1.02
2023-02-24T04:07:14.099Z,1.06
2023-02-24T04:09:52.614Z,1.12
2023-02-24T04:12:34.654Z,1.16
2023-02-24T04:15:09.928Z,1.23
2023-02-24T04:17:45.355Z,1.30
2023-02-24T04:20:15.692Z,1.33
2023-02-24T04:22:45.987Z,1.39
2023-02-24T04:25:14.144Z,1.52
2023-02-24T04:27:42.901Z,1.55
2023-02-24T04:30:11.805Z,1.53
2023-02-24T04:32:40.633Z,1.59
2023-02-24T04:35:12.958Z,1.53
2023-02-24T04:37:39.663Z,1.55
2023-02-24T04:40:09.754Z,1.51
2023-02-24T04:42:37.171Z,1.55
2023-02-24T04:45:03.871Z,1.59
2023-02-24T04:47:30.252Z,1.57
2023-02-24T04:49:56.585Z,1.71
2023-02-24T04:52:22.945Z,1.77
2023-02-24T04:54:51.678Z,1.84
2023-02-24T04:57:18.032Z,1.89
2023-02-24T04:59:44.513Z,1.84
2023-02-24T05:02:12.016Z,1.88
2023-02-24T05:04:38.364Z,1.89
2023-02-24T05:07:04.845Z,1.93
2023-02-24T05:09:31.366Z,1.91
2023-02-24T05:11:58.123Z,1.93
2023-02-24T05:14:24.609Z,1.91
2023-02-24T05:16:51.230Z,1.91
2023-02-24T05:19:19.928Z,1.82
2023-02-24T05:21:47.167Z,1.80
2023-02-24T05:24:14.060Z,1.72
2023-02-24T05:26:40.668Z,1.72
2023-02-24T05:29:07.454Z,1.75
2023-02-24T05:31:34.892Z,1.85
2023-02-24T05:34:03.819Z,1.82
2023-02-24T05:36:34.499Z,1.78
2023-02-24T05:39:01.050Z,1.73
2023-02-24T05:41:28.137Z,1.80
2023-02-24T05:43:56.350Z,1.83
2023-02-24T05:46:25.132Z,1.84
2023-02-24T05:48:51.620Z,1.87
2023-02-24T05:51:18.187Z,1.88
2023-02-24T05:53:44.693Z,1.90
2023-02-24T05:56:11.436Z,1.93
2023-02-24T05:58:38.054Z,2.02
2023-02-24T06:01:10.856Z,1.98
2023-02-24T06:03:37.246Z,2.03
2023-02-24T06:06:05.447Z,2.14
2023-02-24T06:08:33.373Z,2.17
2023-02-24T06:10:59.842Z,2.10
2023-02-24T06:13:26.153Z,2.15
2023-02-24T06:15:57.291Z,2.16
2023-02-24T06:18:24.085Z,2.22
2023-02-24T06:20:50.607Z,2.22
2023-02-24T06:23:17.145Z,2.29
2023-02-24T06:25:44.020Z,2.31
2023-02-24T06:28:10.471Z,2.34
2023-02-24T06:30:37.150Z,2.41
2023-02-24T06:33:04.066Z,2.44
2023-02-24T06:35:30.575Z,2.41
2023-02-24T06:37:57.184Z,2.44
2023-02-24T06:40:23.980Z,2.48
2023-02-24T06:42:52.431Z,2.53
2023-02-24T06:45:18.808Z,2.61
2023-02-24T06:47:45.281Z,2.62
2023-02-24T06:50:11.979Z,2.61
2023-02-24T06:52:39.266Z,2.60
2023-02-24T06:55:06.446Z,2.62
2023-02-24T06:57:32.917Z,2.61
2023-02-24T06:59:59.354Z,2.69
2023-02-24T07:02:25.781Z,2.80
2023-02-24T07:04:52.146Z,2.78
2023-02-24T07:07:20.688Z,2.79
2023-02-24T07:09:47.388Z,2.84
2023-02-24T07:12:13.899Z,2.81
2023-02-24T07:14:41.002Z,2.85
2023-02-24T07:17:08.264Z,2.86
2023-02-24T07:19:37.835Z,2.87
2023-02-24T07:22:04.632Z,2.87
2023-02-24T07:24:34.942Z,3.00
2023-02-24T07:27:28.834Z,3.05
2023-02-24T07:29:56.257Z,3.10
2023-02-24T07:32:23.352Z,3.18
2023-02-24T07:34:49.975Z,3.12
2023-02-24T07:37:16.873Z,3.20
2023-02-24T07:39:43.574Z,3.23
2023-02-24T07:42:11.521Z,3.31
2023-02-24T07:44:37.914Z,3.25
2023-02-24T07:47:04.419Z,3.27
2023-02-24T07:49:30.891Z,3.38
2023-02-24T07:51:57.379Z,3.36
2023-02-24T07:54:25.440Z,3.41
2023-02-24T07:56:51.904Z,3.49
2023-02-24T07:59:18.682Z,3.56
2023-02-24T08:01:47.263Z,3.54
2023-02-24T08:04:13.943Z,3.60
2023-02-24T08:06:42.627Z,3.56
2023-02-24T08:09:14.493Z,3.62
2023-02-24T08:11:41.017Z,3.59
2023-02-24T08:14:07.496Z,3.68
2023-02-24T08:16:34.013Z,3.69
2023-02-24T08:19:00.537Z,3.68
2023-02-24T08:21:26.928Z,3.72
2023-02-24T08:23:53.388Z,3.75
2023-02-24T08:26:19.801Z,3.84
2023-02-24T08:28:46.616Z,3.83
2023-02-24T08:31:13.116Z,3.93
2023-02-24T08:33:39.608Z,3.94
2023-02-24T08:36:05.997Z,4.01
2023-02-24T08:38:35.497Z,4.01
2023-02-24T08:41:01.911Z,4.12
2023-02-24T08:43:31.388Z,4.24
2023-02-24T08:46:05.619Z,4.23
2023-02-24T08:48:40.789Z,4.22
2023-02-24T08:51:09.472Z,4.32
2023-02-24T08:53:37.639Z,4.26
2023-02-24T08:56:04.263Z,4.23
2023-02-24T08:58:30.649Z,4.24
2023-02-24T09:00:58.332Z,4.23
2023-02-24T09:03:27.839Z,4.28
2023-02-24T09:06:08.156Z,4.32
2023-02-24T09:08:37.674Z,4.40
2023-02-24T09:11:10.346Z,4.44
2023-02-24T09:13:37.817Z,4.54
2023-02-24T09:16:05.863Z,4.51
2023-02-24T09:18:32.306Z,4.66
2023-02-24T09:20:58.864Z,4.67
2023-02-24T09:23:25.425Z,4.74
2023-02-24T09:25:51.770Z,4.81
2023-02-24T09:28:26.486Z,4.92
2023-02-24T09:30:58.750Z,4.94
2023-02-24T09:33:26.687Z,4.98
2023-02-24T09:36:04.860Z,4.98
2023-02-24T09:38:31.176Z,5.02
2023-02-24T09:40:58.579Z,5.04
2023-02-24T09:43:29.150Z,5.13
2023-02-24T09:46:06.399Z,5.18
2023-02-24T09:48:42.512Z,5.25
2023-02-24T09:51:12.206Z,5.18
2023-02-24T09:53:41.527Z,5.15
2023-02-24T09:56:13.069Z,5.10
2023-02-24T09:58:56.929Z,5.18
2023-02-24T10:01:29.422Z,5.17
2023-02-24T10:04:20.605Z,5.19
2023-02-24T10:09:46.350Z,5.19
2023-02-24T10:12:18.474Z,5.12
2023-02-24T10:15:00.395Z,5.21
2023-02-24T10:17:28.695Z,5.14
2023-02-24T10:19:59.912Z,5.12
2023-02-24T10:22:38.828Z,5.10
2023-02-24T10:25:40.065Z,5.13
2023-02-24T10:28:19.523Z,5.15
2023-02-24T10:30:55.219Z,5.16
2023-02-24T10:33:32.166Z,5.19
2023-02-24T10:36:24.913Z,5.20
2023-02-24T10:38:51.830Z,5.21
2023-02-24T10:41:18.758Z,5.20
2023-02-24T10:43:56.830Z,5.23
2023-02-24T10:46:40.648Z,5.33
2023-02-24T10:49:11.129Z,5.36
2023-02-24T10:51:40.787Z,5.41
2023-02-24T10:54:14.699Z,5.36
2023-02-24T10:56:44.414Z,5.39
2023-02-24T10:59:15.301Z,5.46
2023-02-24T11:01:43.036Z,5.46
2023-02-24T11:04:14.288Z,5.53
2023-02-24T11:06:41.323Z,5.54
2023-02-24T11:09:13.668Z,5.56
2023-02-24T11:11:40.041Z,5.54
2023-02-24T11:14:16.962Z,5.57
2023-02-24T11:16:52.147Z,5.61
2023-02-24T11:19:20.803Z,5.56
2023-02-24T11:21:47.484Z,5.63
2023-02-24T11:24:18.773Z,5.64
2023-02-24T11:26:47.877Z,5.64
2023-02-24T11:29:33.550Z,5.80
2023-02-24T11:32:09.702Z,5.82
2023-02-24T11:35:20.135Z,5.86
2023-02-24T11:38:16.438Z,5.85
2023-02-24T11:40:49.166Z,5.88
2023-02-24T11:43:24.648Z,5.92
2023-02-24T11:45:59.452Z,5.93
2023-02-24T11:48:52.401Z,6.04
2023-02-24T11:51:24.962Z,6.13
2023-02-24T11:54:04.588Z,6.21
2023-02-24T11:56:42.523Z,6.29
2023-02-24T11:59:22.483Z,6.28
2023-02-24T12:02:13.790Z,6.34
2023-02-24T12:05:00.589Z,6.34
2023-02-24T12:07:41.111Z,6.41
2023-02-24T12:10:24.434Z,6.44
2023-02-24T12:13:02.853Z,6.49
2023-02-24T12:15:43.674Z,6.68
2023-02-24T12:18:29.976Z,7.08
2023-02-24T12:21:23.037Z,7.71
2023-02-24T12:23:52.091Z,8.85
2023-02-24T12:26:45.652Z,9.84
2023-02-24T12:29:19.154Z,10.24
2023-02-24T12:32:14.294Z,10.16
2023-02-24T12:35:18.545Z,9.64
2023-02-24T12:38:40.380Z,9.17
2023-02-24T12:41:30.474Z,8.92
2023-02-24T12:44:23.039Z,8.79
2023-02-24T12:47:12.222Z,8.76
2023-02-24T12:49:58.754Z,8.88
2023-02-24T12:52:43.357Z,9.69
2023-02-24T12:56:00.306Z,11.16
2023-02-24T12:58:32.274Z,13.24
2023-02-24T13:01:21.204Z,15.19
2023-02-24T13:03:57.553Z,16.02
2023-02-24T13:06:45.699Z,15.68
2023-02-24T13:09:46.621Z,14.59
2023-02-24T13:12:27.036Z,13.73
2023-02-24T13:14:53.839Z,12.60
2023-02-24T13:17:23.702Z,11.71
2023-02-24T13:19:51.549Z,11.36
2023-02-24T13:22:23.228Z,10.77
2023-02-24T13:25:07.831Z,10.15
2023-02-24T13:27:36.729Z,9.96
2023-02-24T13:30:12.473Z,10.82
2023-02-24T13:32:42.665Z,10.88
2023-02-24T13:35:17.550Z,10.76
2023-02-24T13:37:46.295Z,10.21
2023-02-24T13:40:15.873Z,10.11
2023-02-24T13:42:44.684Z,9.91
2023-02-24T13:45:11.343Z,9.99
2023-02-24T13:48:01.602Z,9.14
2023-02-24T13:50:40.481Z,8.46
2023-02-24T13:53:40.245Z,7.92
2023-02-24T13:56:21.967Z,7.60
2023-02-24T13:58:52.992Z,7.57
2023-02-24T14:01:21.362Z,7.42
2023-02-24T14:04:04.383Z,7.47
2023-02-24T14:06:31.569Z,7.57
2023-02-24T14:09:02.296Z,8.09
2023-02-24T14:11:34.596Z,8.29
2023-02-24T14:14:01.245Z,8.29
2023-02-24T14:16:35.404Z,8.02
2023-02-24T14:19:03.452Z,7.99
2023-02-24T14:21:33.303Z,7.97
2023-02-24T14:24:10.665Z,8.08
2023-02-24T14:29:43.586Z,8.45
2023-02-24T14:32:23.723Z,8.56
2023-02-24T14:34:51.234Z,8.44
2023-02-24T14:37:23.752Z,8.24
2023-02-24T14:39:55.749Z,8.19
2023-02-24T14:42:23.187Z,8.31
2023-02-24T14:44:54.511Z,8.79
2023-02-24T14:47:25.080Z,9.21
2023-02-24T14:50:02.805Z,9.59
2023-02-24T14:52:50.272Z,9.30
2023-02-24T14:55:22.978Z,9.13
2023-02-24T14:57:58.759Z,8.73
2023-02-24T15:00:29.042Z,8.48
2023-02-24T15:03:04.694Z,8.13
2023-02-24T15:05:31.334Z,7.89
2023-02-24T15:07:58.800Z,7.73
2023-02-24T15:10:30.156Z,7.62
2023-02-24T15:13:04.724Z,7.48
2023-02-24T15:15:36.126Z,7.47
2023-02-24T15:18:12.283Z,7.41
2023-02-24T15:20:39.888Z,7.56
2023-02-24T15:23:26.747Z,7.53
2023-02-24T15:25:53.204Z,7.48
2023-02-24T15:28:29.335Z,7.55
2023-02-24T15:31:18.383Z,7.60
2023-02-24T15:33:55.123Z,7.60
2023-02-24T15:36:23.939Z,7.49
2023-02-24T15:38:57.881Z,7.49
2023-02-24T15:41:24.858Z,7.56
2023-02-24T15:43:53.617Z,7.60
2023-02-24T15:46:30.344Z,7.52
2023-02-24T15:48:57.260Z,7.51
2023-02-24T15:51:26.647Z,7.39
2023-02-24T15:53:53.349Z,7.26
2023-02-24T15:56:24.112Z,7.25
2023-02-24T15:58:50.843Z,7.24
2023-02-24T16:01:17.304Z,7.31
2023-02-24T16:03:43.800Z,7.39
2023-02-24T16:06:18.928Z,7.42
2023-02-24T16:08:48.127Z,7.37
2023-02-24T16:11:17.055Z,7.34
2023-02-24T16:13:48.247Z,7.22
2023-02-24T16:16:14.704Z,7.22
2023-02-24T16:18:41.105Z,7.21
2023-02-24T16:21:07.798Z,7.30
2023-02-24T16:23:34.165Z,7.23
2023-02-24T16:26:00.505Z,7.18
2023-02-24T16:28:26.979Z,7.11
2023-02-24T16:30:53.807Z,7.07
2023-02-24T16:33:20.932Z,7.12
2023-02-24T16:35:47.562Z,7.04
2023-02-24T16:38:16.375Z,7.07
2023-02-24T16:40:45.999Z,6.99
2023-02-24T16:43:12.784Z,6.89
2023-02-24T16:45:41.504Z,6.87
2023-02-24T16:48:20.885Z,6.84
2023-02-24T16:50:48.457Z,6.76
2023-02-24T16:53:18.867Z,6.77
2023-02-24T16:55:47.293Z,6.73
2023-02-24T16:58:14.824Z,6.63
2023-02-24T17:00:44.341Z,6.56
2023-02-24T17:03:20.896Z,6.55
2023-02-24T17:05:48.474Z,6.41
2023-02-24T17:08:15.635Z,6.36
2023-02-24T17:10:42.728Z,6.35
2023-02-24T17:13:18.993Z,6.33
2023-02-24T17:15:47.802Z,6.36
2023-02-24T17:18:14.171Z,6.32
2023-02-24T17:20:41.272Z,6.28
2023-02-24T17:23:11.954Z,6.21
2023-02-24T17:25:38.863Z,6.04
2023-02-24T17:28:07.403Z,5.93
2023-02-24T17:30:43.722Z,5.87
2023-02-24T17:33:10.180Z,5.69
2023-02-24T17:35:36.628Z,5.75
2023-02-24T17:38:02.997Z,5.71
2023-02-24T17:40:32.158Z,5.76
2023-02-24T17:42:58.716Z,5.80
2023-02-24T17:45:25.533Z,5.79
2023-02-24T17:47:52.181Z,5.73
2023-02-24T17:50:23.469Z,5.59
2023-02-24T17:52:49.963Z,5.70
2023-02-24T17:55:18.109Z,5.52
2023-02-24T17:57:44.674Z,5.52
2023-02-24T18:00:12.280Z,5.58
2023-02-24T18:02:39.514Z,5.51
2023-02-24T18:05:07.702Z,5.54
2023-02-24T18:07:34.221Z,5.58
2023-02-24T18:10:00.686Z,5.59
2023-02-24T18:12:27.409Z,5.54
2023-02-24T18:15:07.297Z,5.56
2023-02-24T18:17:39.379Z,5.62
2023-02-24T18:20:09.776Z,5.56
2023-02-24T18:22:36.157Z,5.51
2023-02-24T18:25:02.922Z,5.36
2023-02-24T18:27:29.369Z,5.35
2023-02-24T18:29:55.826Z,5.30
2023-02-24T18:32:22.604Z,5.23
2023-02-24T18:34:50.615Z,5.25
2023-02-24T18:37:17.754Z,5.11
2023-02-24T18:39:45.087Z,5.11
2023-02-24T18:42:11.522Z,5.07
2023-02-24T18:44:40.584Z,5.01
2023-02-24T18:47:07.035Z,4.96
2023-02-24T18:49:33.569Z,4.86
2023-02-24T18:51:59.995Z,4.87
2023-02-24T18:54:26.816Z,4.77
2023-02-24T18:56:53.149Z,4.83
2023-02-24T18:59:19.984Z,4.74
2023-02-24T19:01:46.556Z,4.71
2023-02-24T19:04:13.599Z,4.68
2023-02-24T19:06:42.972Z,4.56
2023-02-24T19:09:11.089Z,4.55
2023-02-24T19:11:38.634Z,4.44
2023-02-24T19:14:05.502Z,4.51
2023-02-24T19:16:32.813Z,4.61
2023-02-24T19:18:59.791Z,4.62
2023-02-24T19:21:28.776Z,4.60
2023-02-24T19:23:55.502Z,4.55
2023-02-24T19:26:25.385Z,4.53
2023-02-24T19:28:52.783Z,4.58
2023-02-24T19:31:25.965Z,4.52
2023-02-24T19:33:54.279Z,4.52
2023-02-24T19:36:21.118Z,4.50
2023-02-24T19:38:48.055Z,4.74
2023-02-24T19:41:14.875Z,4.67
2023-02-24T19:43:41.381Z,4.69
2023-02-24T19:46:10.080Z,4.78
2023-02-24T19:48:36.603Z,4.80
2023-02-24T19:51:11.676Z,4.77
2023-02-24T19:53:38.248Z,4.79
2023-02-24T19:56:05.414Z,4.77
2023-02-24T19:58:32.251Z,4.83
2023-02-24T20:01:13.432Z,4.84
2023-02-24T20:03:44.869Z,4.83
2023-02-24T20:06:38.585Z,4.85
2023-02-24T20:09:07.280Z,4.83
2023-02-24T20:11:38.948Z,4.88
2023-02-24T20:14:06.894Z,4.85
2023-02-24T20:16:34.991Z,4.83
2023-02-24T20:19:02.099Z,4.99
2023-02-24T20:21:29.980Z,5.02
2023-02-24T20:24:00.027Z,5.05
2023-02-24T20:26:27.097Z,5.11
2023-02-24T20:28:53.565Z,5.17
2023-02-24T20:31:20.067Z,5.12
2023-02-24T20:33:48.545Z,5.11
2023-02-24T20:36:17.777Z,5.11
2023-02-24T20:38:44.779Z,5.08
2023-02-24T20:41:11.793Z,5.09
2023-02-24T20:43:38.448Z,5.16
2023-02-24T20:46:34.720Z,5.09
2023-02-24T20:49:05.313Z,5.08
2023-02-24T20:51:33.132Z,5.07
2023-02-24T20:53:59.970Z,5.09
2023-02-24T20:56:28.950Z,5.06
2023-02-24T20:59:01.407Z,4.88
2023-02-24T21:01:29.735Z,4.99
2023-02-24T21:03:56.233Z,5.00
2023-02-24T21:06:23.060Z,5.02
2023-02-24T21:08:50.092Z,4.99
2023-02-24T21:11:16.720Z,5.03
2023-02-24T21:13:45.087Z,4.99
2023-02-24T21:16:13.285Z,5.01
2023-02-24T21:18:42.345Z,5.03
2023-02-24T21:21:09.743Z,5.02
2023-02-24T21:23:38.444Z,5.06
2023-02-24T21:26:06.404Z,4.99
2023-02-24T21:28:33.543Z,4.77
2023-02-24T21:31:00.029Z,4.74
2023-02-24T21:33:33.706Z,4.71
2023-02-24T21:36:04.752Z,4.69
2023-02-24T21:38:31.118Z,4.69
2023-02-24T21:41:06.138Z,4.57
2023-02-24T21:43:33.032Z,4.61
2023-02-24T21:46:04.284Z,4.59
2023-02-24T21:48:31.513Z,4.54
2023-02-24T21:51:02.084Z,4.51
2023-02-24T21:53:28.558Z,4.53
2023-02-24T21:56:07.143Z,4.49
2023-02-24T21:58:33.507Z,4.56
2023-02-24T22:00:59.854Z,4.51
2023-02-24T22:03:26.299Z,4.47
2023-02-24T22:05:52.980Z,4.38
2023-02-24T22:08:19.652Z,4.35
2023-02-24T22:10:45.980Z,4.40
2023-02-24T22:13:12.376Z,4.29
2023-02-24T22:15:38.895Z,4.24
2023-02-24T22:18:05.364Z,4.15
2023-02-24T22:20:31.770Z,4.13
2023-02-24T22:22:59.383Z,4.05
2023-02-24T22:25:25.801Z,4.08
2023-02-24T22:27:52.161Z,4.00
2023-02-24T22:30:18.697Z,3.90
2023-02-24T22:32:45.178Z,3.90
2023-02-24T22:35:11.567Z,3.91
2023-02-24T22:37:38.150Z,4.00
2023-02-24T22:40:05.054Z,4.05
2023-02-24T22:42:31.580Z,3.93
2023-02-24T22:44:57.968Z,3.87
2023-02-24T22:47:24.681Z,3.88
2023-02-24T22:49:51.043Z,3.81
2023-02-24T22:52:17.498Z,3.69
2023-02-24T22:54:44.575Z,3.68
2023-02-24T22:57:10.969Z,3.68
2023-02-24T22:59:37.344Z,3.61
2023-02-24T23:02:03.717Z,3.63
2023-02-24T23:04:30.120Z,3.49
2023-02-24T23:06:56.453Z,3.45
2023-02-24T23:09:23.172Z,3.37
2023-02-24T23:11:49.711Z,3.30
2023-02-24T23:14:16.641Z,3.30
2023-02-24T23:16:44.825Z,3.30
2023-02-24T23:19:14.504Z,3.33
2023-02-24T23:21:44.057Z,3.45
2023-02-24T23:24:12.113Z,3.40
2023-02-24T23:26:41.805Z,3.48
2023-02-24T23:29:09.637Z,3.48
2023-02-24T23:31:37.044Z,3.48
2023-02-24T23:34:04.053Z,3.62
2023-02-24T23:36:30.488Z,3.62
2023-02-24T23:38:57.145Z,3.74
2023-02-24T23:41:23.965Z,3.59
2023-02-24T23:43:50.409Z,3.66
2023-02-24T23:46:16.976Z,3.68
2023-02-24T23:48:43.409Z,3.71
2023-02-24T23:51:15.281Z,3.69
2023-02-24T23:53:44.072Z,3.73
2023-02-24T23:56:15.853Z,3.80
2023-02-24T23:58:42.411Z,3.88
